createdAt,value
2022-11-12T00:00:14.073Z,102398.09
2022-11-12T00:03:21.532Z,102409.63
2022-11-12T00:06:28.887Z,102403.63
2022-11-12T00:09:35.568Z,102413.66
2022-11-12T00:12:43.931Z,102404.91
2022-11-12T00:15:50.282Z,102410.16
2022-11-12T00:18:57.125Z,102410.22
2022-11-12T00:22:03.942Z,102403.53
2022-11-12T00:25:11.412Z,102398.72
2022-11-12T00:28:19.521Z,102413.72
2022-11-12T00:31:27.270Z,102410.03
2022-11-12T00:34:34.011Z,102413.31
2022-11-12T00:37:40.920Z,102414.16
2022-11-12T00:40:47.771Z,102428.13
2022-11-12T00:43:55.739Z,102427.69
2022-11-12T00:47:02.261Z,102435.16
2022-11-12T00:50:10.257Z,102435.44
2022-11-12T00:53:18.090Z,102433.19
2022-11-12T00:56:24.682Z,102446.88
2022-11-12T00:59:32.868Z,102441.13
2022-11-12T01:02:44.176Z,102439.47
2022-11-12T01:05:52.529Z,102444.31
2022-11-12T01:08:59.196Z,102433.50
2022-11-12T01:12:06.133Z,102432.53
2022-11-12T01:15:14.261Z,102429.34
2022-11-12T01:18:20.763Z,102432.84
2022-11-12T01:21:32.768Z,102435.78
2022-11-12T01:24:39.193Z,102434.22
2022-11-12T01:27:46.314Z,102432.63
2022-11-12T01:30:55.330Z,102430.41
2022-11-12T01:34:04.383Z,102440.25
2022-11-12T01:37:10.742Z,102437.53
2022-11-12T01:40:17.704Z,102431.91
2022-11-12T01:43:24.142Z,102431.88
2022-11-12T01:46:32.360Z,102432.38
2022-11-12T01:49:51.880Z,102437.56
2022-11-12T01:53:04.307Z,102435.59
2022-11-12T01:56:11.118Z,102441.25
2022-11-12T01:59:22.872Z,102424.50
2022-11-12T02:02:31.611Z,102434.84
2022-11-12T02:05:40.004Z,102438.78
2022-11-12T02:08:47.425Z,102443.94
2022-11-12T02:11:54.162Z,102428.94
2022-11-12T02:14:59.874Z,102429.66
2022-11-12T02:18:08.799Z,102432.88
2022-11-12T02:21:15.969Z,102437.06
2022-11-12T02:24:37.029Z,102425.47
2022-11-12T02:27:44.447Z,102431.91
2022-11-12T02:30:51.240Z,102428.94
2022-11-12T02:33:58.103Z,102424.25
2022-11-12T02:37:04.491Z,102425.25
2022-11-12T02:40:12.760Z,102427.94
2022-11-12T02:43:19.193Z,102437.56
2022-11-12T02:46:25.940Z,102428.69
2022-11-12T02:49:32.551Z,102427.19
2022-11-12T02:52:40.037Z,102420.53
2022-11-12T02:55:47.760Z,102424.00
2022-11-12T02:58:54.171Z,102426.44
2022-11-12T03:02:00.675Z,102430.25
2022-11-12T03:05:07.801Z,102423.97
2022-11-12T03:08:14.248Z,102420.53
2022-11-12T03:11:22.543Z,102425.56
2022-11-12T03:14:29.261Z,102420.19
2022-11-12T03:17:36.381Z,102420.53
2022-11-12T03:20:42.981Z,102429.69
2022-11-12T03:23:49.721Z,102430.41
2022-11-12T03:26:57.761Z,102430.41
2022-11-12T03:30:04.076Z,102427.94
2022-11-12T03:33:12.251Z,102425.09
2022-11-12T03:36:19.091Z,102421.75
2022-11-12T03:39:25.789Z,102423.59
2022-11-12T03:42:34.208Z,102411.13
2022-11-12T03:45:40.613Z,102428.28
2022-11-12T03:48:47.448Z,102421.47
2022-11-12T03:51:54.277Z,102409.41
2022-11-12T03:55:01.358Z,102408.41
2022-11-12T03:58:09.452Z,102406.31
2022-11-12T04:01:16.158Z,102400.91
2022-11-12T04:04:23.002Z,102410.16
2022-11-12T04:07:47.181Z,102403.88
2022-11-12T04:10:54.126Z,102397.81
2022-11-12T04:14:02.334Z,102389.69
2022-11-12T04:17:26.849Z,102396.00
2022-11-12T04:21:02.532Z,102402.03
2022-11-12T04:24:09.001Z,102399.81
2022-11-12T04:27:15.931Z,102401.50
2022-11-12T04:30:24.132Z,102400.00
2022-11-12T04:33:31.125Z,102385.00
2022-11-12T04:36:37.852Z,102384.50
2022-11-12T04:39:44.879Z,102392.53
2022-11-12T04:43:09.282Z,102399.78
2022-11-12T04:46:17.627Z,102397.22
2022-11-12T04:49:24.113Z,102396.00
2022-11-12T04:52:31.935Z,102387.88
2022-11-12T04:55:38.238Z,102389.94
2022-11-12T04:58:44.891Z,102378.28
2022-11-12T05:01:53.409Z,102373.09
2022-11-12T05:04:59.929Z,102385.25
2022-11-12T05:08:06.633Z,102385.88
2022-11-12T05:11:13.154Z,102386.72
2022-11-12T05:14:19.741Z,102378.72
2022-11-12T05:17:27.792Z,102381.59
2022-11-12T05:20:34.347Z,102391.09
2022-11-12T05:23:41.090Z,102389.69
2022-11-12T05:26:48.188Z,102392.25
2022-11-12T05:29:55.741Z,102399.50
2022-11-12T05:33:05.365Z,102391.09
2022-11-12T05:36:11.771Z,102403.88
2022-11-12T05:39:18.394Z,102398.47
2022-11-12T05:42:24.628Z,102400.00
2022-11-12T05:45:31.376Z,102397.81
2022-11-12T05:48:39.668Z,102387.44
2022-11-12T05:51:46.681Z,102379.88
2022-11-12T05:54:53.107Z,102391.34
2022-11-12T05:57:59.902Z,102396.31
2022-11-12T06:01:07.065Z,102389.81
2022-11-12T06:04:16.801Z,102394.84
2022-11-12T06:07:23.652Z,102400.03
2022-11-12T06:10:30.424Z,102381.44
2022-11-12T06:13:37.228Z,102390.03
2022-11-12T06:16:44.185Z,102395.97
2022-11-12T06:19:52.663Z,102366.38
2022-11-12T06:22:59.197Z,102399.09
2022-11-12T06:26:06.494Z,102406.03
2022-11-12T06:29:13.719Z,102409.69
2022-11-12T06:32:20.481Z,102404.88
2022-11-12T06:35:28.241Z,102402.88
2022-11-12T06:38:36.451Z,102405.44
2022-11-12T06:41:43.189Z,102410.41
2022-11-12T06:44:49.721Z,102408.78
2022-11-12T06:47:59.231Z,102417.06
2022-11-12T06:51:12.836Z,102417.16
2022-11-12T06:54:19.165Z,102403.75
2022-11-12T06:57:25.971Z,102390.56
2022-11-12T07:00:32.694Z,102398.47
2022-11-12T07:03:40.003Z,102404.16
2022-11-12T07:06:48.063Z,102411.78
2022-11-12T07:09:54.367Z,102417.06
2022-11-12T07:13:01.290Z,102407.09
2022-11-12T07:16:09.500Z,102406.22
2022-11-12T07:19:16.042Z,102410.69
2022-11-12T07:22:24.530Z,102403.88
2022-11-12T07:25:31.073Z,102415.59
2022-11-12T07:28:37.749Z,102410.16
2022-11-12T07:31:44.369Z,102415.81
2022-11-12T07:34:51.516Z,102416.44
2022-11-12T07:37:59.746Z,102416.91
2022-11-12T07:41:08.681Z,102404.25
2022-11-12T07:44:15.390Z,102415.34
2022-11-12T07:47:22.312Z,102413.88
2022-11-12T07:50:29.020Z,102414.34
2022-11-12T07:53:37.058Z,102418.81
2022-11-12T07:56:43.775Z,102418.31
2022-11-12T07:59:50.312Z,102412.91
2022-11-12T08:03:00.446Z,102414.28
2022-11-12T08:06:07.228Z,102425.25
2022-11-12T08:09:15.516Z,102415.63
2022-11-12T08:12:22.049Z,102417.94
2022-11-12T08:15:28.831Z,102416.34
2022-11-12T08:18:35.604Z,102401.81
2022-11-12T08:21:42.643Z,102428.41
2022-11-12T08:24:50.879Z,102431.38
2022-11-12T08:27:59.281Z,102415.25
2022-11-12T08:31:07.050Z,102420.28
2022-11-12T08:34:16.222Z,102413.09
2022-11-12T08:37:26.296Z,102414.16
2022-11-12T08:40:34.883Z,102416.91
2022-11-12T08:43:43.199Z,102409.41
2022-11-12T08:46:49.611Z,102412.09
2022-11-12T08:49:56.324Z,102410.97
2022-11-12T08:53:03.902Z,102414.88
2022-11-12T08:56:11.932Z,102409.66
2022-11-12T08:59:18.462Z,102418.97
2022-11-12T09:02:25.111Z,102426.63
2022-11-12T09:05:31.812Z,102429.69
2022-11-12T09:08:40.049Z,102428.25
2022-11-12T09:11:48.064Z,102422.56
2022-11-12T09:14:59.562Z,102417.16
2022-11-12T09:18:19.226Z,102433.72
2022-11-12T09:21:25.891Z,102436.22
2022-11-12T09:24:32.493Z,102422.31
2022-11-12T09:27:44.362Z,102431.22
2022-11-12T09:30:55.679Z,102433.09
2022-11-12T09:34:02.082Z,102430.41
2022-11-12T09:37:08.963Z,102424.78
2022-11-12T09:40:19.561Z,102426.09
2022-11-12T09:43:31.082Z,102429.91
2022-11-12T09:46:44.723Z,102426.63
2022-11-12T09:49:58.362Z,102429.97
2022-11-12T09:53:12.673Z,102440.25
2022-11-12T09:56:21.960Z,102430.44
2022-11-12T09:59:33.180Z,102431.69
2022-11-12T10:02:48.228Z,102428.59
2022-11-12T10:06:00.162Z,102427.75
2022-11-12T10:09:12.535Z,102422.91
2022-11-12T10:12:35.239Z,102436.16
2022-11-12T10:16:16.870Z,102431.41
2022-11-12T10:19:34.100Z,102418.59
2022-11-12T10:22:59.012Z,102414.94
2022-11-12T10:26:13.850Z,102418.59
2022-11-12T10:29:28.467Z,102416.50
2022-11-12T10:32:38.494Z,102418.03
2022-11-12T10:35:45.213Z,102418.03
2022-11-12T10:38:55.259Z,102418.63
2022-11-12T10:42:05.664Z,102416.53
2022-11-12T10:45:22.252Z,102416.22
2022-11-12T10:48:34.231Z,102407.50
2022-11-12T10:51:41.796Z,102404.78
2022-11-12T10:54:54.864Z,102409.69
2022-11-12T10:58:16.700Z,102407.25
2022-11-12T11:01:23.431Z,102411.84
2022-11-12T11:04:35.089Z,102392.19
2022-11-12T11:07:51.282Z,102394.50
2022-11-12T11:11:16.641Z,102391.19
2022-11-12T11:14:33.095Z,102385.44
2022-11-12T11:17:39.869Z,102389.16
2022-11-12T11:20:55.423Z,102380.53
2022-11-12T11:24:11.723Z,102403.50
2022-11-12T11:27:30.729Z,102391.78
2022-11-12T11:30:40.389Z,102392.53
2022-11-12T11:33:55.572Z,102394.44
2022-11-12T11:37:15.413Z,102387.19
2022-11-12T11:40:28.391Z,102378.59
2022-11-12T11:43:48.692Z,102386.41
2022-11-12T11:47:07.043Z,102381.31
2022-11-12T11:50:27.315Z,102388.78
2022-11-12T11:53:47.641Z,102374.94
2022-11-12T11:56:59.794Z,102371.41
2022-11-12T12:00:16.855Z,102365.56
2022-11-12T12:03:32.825Z,102371.03
2022-11-12T12:06:49.957Z,102367.53
2022-11-12T12:10:09.339Z,102351.34
2022-11-12T12:13:25.930Z,102348.47
2022-11-12T12:16:52.058Z,102341.22
2022-11-12T12:20:06.709Z,102341.50
2022-11-12T12:23:22.006Z,102339.41
2022-11-12T12:26:37.281Z,102326.91
2022-11-12T12:29:50.117Z,102326.06
2022-11-12T12:33:02.717Z,102322.59
2022-11-12T12:36:12.771Z,102330.13
2022-11-12T12:39:21.759Z,102315.81
2022-11-12T12:42:34.262Z,102316.81
2022-11-12T12:45:44.162Z,102315.22
2022-11-12T12:48:54.320Z,102309.44
2022-11-12T12:52:01.393Z,102302.56
2022-11-12T12:55:28.462Z,102306.16
2022-11-12T12:58:45.219Z,102308.69
2022-11-12T13:01:58.531Z,102319.13
2022-11-12T13:05:06.106Z,102316.75
2022-11-12T13:08:15.410Z,102313.72
2022-11-12T13:12:06.807Z,102308.53
2022-11-12T13:15:17.788Z,102311.19
2022-11-12T13:19:00.922Z,102309.66
2022-11-12T13:22:35.248Z,102307.94
2022-11-12T13:25:42.072Z,102293.66
2022-11-12T13:29:21.593Z,102299.22
2022-11-12T13:32:42.471Z,102300.47
2022-11-12T13:35:49.464Z,102308.63
2022-11-12T13:39:12.321Z,102306.41
2022-11-12T13:42:37.470Z,102296.97
2022-11-12T13:45:49.238Z,102302.44
2022-11-12T13:49:01.141Z,102293.31
2022-11-12T13:52:08.222Z,102292.28
2022-11-12T13:55:17.034Z,102296.81
2022-11-12T13:58:32.199Z,102294.81
2022-11-12T14:01:38.940Z,102294.03
2022-11-12T14:04:47.433Z,102287.94
2022-11-12T14:08:27.144Z,102282.97
2022-11-12T14:11:47.591Z,102291.25
2022-11-12T14:15:11.982Z,102288.13
2022-11-12T14:18:26.725Z,102286.59
2022-11-12T14:21:35.173Z,102284.72
2022-11-12T14:24:42.259Z,102264.09
2022-11-12T14:27:50.191Z,102270.16
2022-11-12T14:30:57.356Z,102280.91
2022-11-12T14:34:23.676Z,102280.94
2022-11-12T14:37:43.070Z,102284.25
2022-11-12T14:40:53.743Z,102286.09
2022-11-12T14:44:12.563Z,102289.84
2022-11-12T14:47:19.860Z,102289.91
2022-11-12T14:50:31.716Z,102288.66
2022-11-12T14:53:46.239Z,102288.75
2022-11-12T14:56:53.398Z,102287.34
2022-11-12T15:00:00.151Z,102286.38
2022-11-12T15:03:07.428Z,102293.03
2022-11-12T15:06:14.154Z,102292.16
2022-11-12T15:09:34.212Z,102289.09
2022-11-12T15:12:41.092Z,102291.34
2022-11-12T15:15:53.668Z,102283.69
2022-11-12T15:19:19.979Z,102281.44
2022-11-12T15:22:26.517Z,102286.50
2022-11-12T15:25:34.551Z,102276.59
2022-11-12T15:28:41.347Z,102282.03
2022-11-12T15:31:50.612Z,102286.84
2022-11-12T15:34:57.201Z,102281.25
2022-11-12T15:38:08.180Z,102280.44
2022-11-12T15:41:27.166Z,102267.88
2022-11-12T15:44:35.910Z,102280.22
2022-11-12T15:47:42.948Z,102280.09
2022-11-12T15:50:50.661Z,102271.63
2022-11-12T15:53:57.354Z,102273.09
2022-11-12T15:57:05.660Z,102277.69
2022-11-12T16:00:17.701Z,102275.81
2022-11-12T16:03:24.566Z,102277.69
2022-11-12T16:06:31.511Z,102276.78
2022-11-12T16:09:39.159Z,102281.63
2022-11-12T16:12:48.733Z,102277.63
2022-11-12T16:15:57.754Z,102270.41
2022-11-12T16:19:04.117Z,102278.63
2022-11-12T16:22:13.725Z,102284.34
2022-11-12T16:25:21.323Z,102289.16
2022-11-12T16:28:29.407Z,102277.03
2022-11-12T16:31:36.033Z,102280.72
2022-11-12T16:34:43.807Z,102281.25
2022-11-12T16:37:51.571Z,102258.53
2022-11-12T16:40:58.025Z,102267.75
2022-11-12T16:44:06.569Z,102277.47
2022-11-12T16:47:13.519Z,102280.84
2022-11-12T16:50:22.332Z,102267.63
2022-11-12T16:53:29.322Z,102289.28
2022-11-12T16:56:36.508Z,102288.47
2022-11-12T16:59:45.146Z,102269.31
2022-11-12T17:02:53.696Z,102273.31
2022-11-12T17:06:00.255Z,102271.09
2022-11-12T17:09:08.687Z,102278.53
2022-11-12T17:12:15.292Z,102281.00
2022-11-12T17:15:23.318Z,102277.81
2022-11-12T17:18:29.965Z,102277.31
2022-11-12T17:21:36.633Z,102274.97
2022-11-12T17:24:43.174Z,102271.06
2022-11-12T17:27:49.895Z,102279.22
2022-11-12T17:31:06.282Z,102278.38
2022-11-12T17:34:13.000Z,102281.56
2022-11-12T17:37:19.950Z,102266.31
2022-11-12T17:40:26.632Z,102270.97
2022-11-12T17:43:33.622Z,102270.63
2022-11-12T17:46:41.667Z,102267.69
2022-11-12T17:49:48.866Z,102272.84
2022-11-12T17:52:55.992Z,102264.00
2022-11-12T17:56:02.993Z,102265.56
2022-11-12T17:59:09.635Z,102268.28
2022-11-12T18:02:17.641Z,102274.31
2022-11-12T18:05:24.523Z,102266.09
2022-11-12T18:08:31.368Z,102258.19
2022-11-12T18:11:44.207Z,102251.63
2022-11-12T18:14:50.853Z,102245.94
2022-11-12T18:17:59.085Z,102246.94
2022-11-12T18:21:06.373Z,102256.41
2022-11-12T18:24:16.324Z,102253.78
2022-11-12T18:27:27.377Z,102240.38
2022-11-12T18:30:34.521Z,102251.44
2022-11-12T18:33:42.964Z,102250.72
2022-11-12T18:36:49.328Z,102247.75
2022-11-12T18:39:56.048Z,102253.88
2022-11-12T18:43:02.703Z,102246.28
2022-11-12T18:46:11.387Z,102227.78
2022-11-12T18:49:19.316Z,102246.91
2022-11-12T18:52:26.149Z,102237.88
2022-11-12T18:55:32.973Z,102248.19
2022-11-12T18:58:39.759Z,102241.34
2022-11-12T19:01:46.296Z,102246.47
2022-11-12T19:04:55.522Z,102245.97
2022-11-12T19:08:02.249Z,102244.69
2022-11-12T19:11:11.480Z,102251.09
2022-11-12T19:14:18.002Z,102234.13
2022-11-12T19:17:28.302Z,102240.03
2022-11-12T19:20:38.653Z,102244.75
2022-11-12T19:23:47.840Z,102242.81
2022-11-12T19:26:56.937Z,102236.66
2022-11-12T19:30:05.916Z,102238.00
2022-11-12T19:33:13.051Z,102236.75
2022-11-12T19:36:23.225Z,102229.22
2022-11-12T19:39:29.827Z,102224.06
2022-11-12T19:42:36.581Z,102224.09
2022-11-12T19:45:43.086Z,102223.59
2022-11-12T19:48:51.301Z,102220.41
2022-11-12T19:51:59.364Z,102214.72
2022-11-12T19:55:06.920Z,102213.22
2022-11-12T19:58:13.703Z,102207.31
2022-11-12T20:01:21.362Z,102203.75
2022-11-12T20:04:28.187Z,102201.91
2022-11-12T20:07:36.402Z,102194.91
2022-11-12T20:10:43.285Z,102194.53
2022-11-12T20:13:53.318Z,102204.84
2022-11-12T20:16:59.792Z,102208.75
2022-11-12T20:20:09.537Z,102199.16
2022-11-12T20:23:17.904Z,102199.78
2022-11-12T20:26:26.908Z,102203.34
2022-11-12T20:29:33.714Z,102193.41
2022-11-12T20:32:40.243Z,102170.59
2022-11-12T20:35:50.816Z,102187.38
2022-11-12T20:38:58.575Z,102188.34
2022-11-12T20:42:05.344Z,102178.81
2022-11-12T20:45:12.272Z,102181.41
2022-11-12T20:48:20.263Z,102188.72
2022-11-12T20:51:29.768Z,102181.41
2022-11-12T20:54:37.681Z,102182.84
2022-11-12T20:57:44.314Z,102185.78
2022-11-12T21:00:51.863Z,102182.56
2022-11-12T21:03:59.392Z,102171.66
2022-11-12T21:07:06.382Z,102169.88
2022-11-12T21:10:14.972Z,102171.81
2022-11-12T21:13:22.004Z,102159.13
2022-11-12T21:16:28.669Z,102154.28
2022-11-12T21:19:35.378Z,102156.94
2022-11-12T21:22:41.993Z,102148.50
2022-11-12T21:25:50.142Z,102155.16
2022-11-12T21:28:57.342Z,102142.97
2022-11-12T21:32:03.641Z,102161.44
2022-11-12T21:35:10.982Z,102150.53
2022-11-12T21:38:17.420Z,102157.00
2022-11-12T21:41:27.352Z,102138.25
2022-11-12T21:44:34.054Z,102145.94
2022-11-12T21:47:40.845Z,102137.88
2022-11-12T21:50:47.626Z,102143.06
2022-11-12T21:53:55.454Z,102146.03
2022-11-12T21:57:03.092Z,102131.50
2022-11-12T22:00:39.732Z,102132.94
2022-11-12T22:03:38.126Z,102136.50
2022-11-12T22:06:44.283Z,102134.59
2022-11-12T22:09:56.381Z,102115.84
2022-11-12T22:13:25.851Z,102134.19
2022-11-12T22:16:31.613Z,102125.34
2022-11-12T22:19:39.160Z,102130.72
2022-11-12T22:22:45.772Z,102115.34
2022-11-12T22:25:53.216Z,102126.59
2022-11-12T22:29:01.457Z,102126.94
2022-11-12T22:32:07.996Z,102129.59
2022-11-12T22:35:14.682Z,102102.97
2022-11-12T22:38:21.455Z,102124.88
2022-11-12T22:41:29.749Z,102114.41
2022-11-12T22:44:37.885Z,102117.00
2022-11-12T22:47:44.362Z,102126.81
2022-11-12T22:50:51.115Z,102121.38
2022-11-12T22:53:59.215Z,102118.84
2022-11-12T22:57:05.878Z,102120.97
2022-11-12T23:00:17.424Z,102115.00
2022-11-12T23:03:23.836Z,102111.19
2022-11-12T23:06:31.872Z,102110.97
2022-11-12T23:09:38.971Z,102106.13
2022-11-12T23:12:45.826Z,102107.56
2022-11-12T23:15:53.832Z,102102.63
2022-11-12T23:19:01.257Z,102093.25
2022-11-12T23:22:08.511Z,102097.13
2022-11-12T23:25:15.301Z,102096.25
2022-11-12T23:28:22.060Z,102101.34
2022-11-12T23:31:32.354Z,102092.00
2022-11-12T23:34:39.165Z,102101.28
2022-11-12T23:37:46.073Z,102087.25
2022-11-12T23:40:57.195Z,102088.13
2022-11-12T23:44:03.946Z,102091.16
2022-11-12T23:47:12.193Z,102086.84
2022-11-12T23:50:19.136Z,102089.16
2022-11-12T23:53:25.454Z,102084.16
2022-11-12T23:56:32.392Z,102083.69
2022-11-12T23:59:39.318Z,102086.97
